Portada
METAR-TAF:

METAR-TAF

Aeropuertos :

Aeropuerto de Gibraltar

Gibraltar, Gibraltar

latitud: 36-09N, longitud: 005-21W, altitud: 5 m

Observación

El informe se hizo hace 1 hora y 16 minutos, a las 15:50 UTC
Viento 14 kt del este-noreste
Temperatura 25°C
Humedad 83%
Presión 1020 hPa
Visibilidad 10 km o más
Escasas nubes a una altura de 1200 ft

METAR: LXGB 251550Z 07014KT 9999 FEW012 25/22 Q1020 NOSIG

Hora: 19:06 (17:06 UTC)

Pronóstico

El informe se hizo hace 3 horas y 46 minutos, a las 13:20 UTC
Pronóstico válido del 25 a las 15 UTC al 25 a las 22 UTC
Viento 15 kt del este-noreste
Visibilidad 10 km o más
Escasas nubes a una altura de 1200 ft
Probabilidad 40% :
Temporalmente
del 25 a las 15 UTC al 25 a las 21 UTC
Viento 15 kt del este con ráfagas de 25 kt

TAF: LXGB 251320Z 2515/2522 07015KT 9999 FEW012 PROB40 TEMPO 2515/2521 09015G25KT 520001

Observaciones y pronósticos meteorológicos de más de 4000 aeropuertos (mensajes METAR y TAF).

Los puntos amarillos y rojos representan las estaciones disponibles.

Ponga el ratón en el punto deseado para ver el nombre de la estación.

Haga clic para ver las observaciones y los pronósticos meteorológicos.

Para cambiar el mapa : haga clic en los botones verdes con una cruz de color negro para hacer un zoom, en el botón verde con un guión para alejar o en las flechas verdes para mapas adyacentes.


METAR-TAF: